sensor_id;sensor_type;location;lat;lon;timestamp;pressure;altitude;pressure_sealevel;temperature;humidity
48553;BME280;34335;51.566;6.994;2023-01-24T00:00:09;103176.00;;;1.67;100.00
48553;BME280;34335;51.566;6.994;2023-01-24T00:02:35;103170.97;;;1.69;100.00
48553;BME280;34335;51.566;6.994;2023-01-24T00:05:01;103180.47;;;1.70;100.00
48553;BME280;34335;51.566;6.994;2023-01-24T00:07:26;103172.56;;;1.67;100.00
48553;BME280;34335;51.566;6.994;2023-01-24T00:09:51;103175.13;;;1.67;100.00
48553;BME280;34335;51.566;6.994;2023-01-24T00:12:17;103171.09;;;1.70;100.00
48553;BME280;34335;51.566;6.994;2023-01-24T00:14:42;103173.69;;;1.70;100.00
48553;BME280;34335;51.566;6.994;2023-01-24T00:17:07;103175.22;;;1.68;100.00
48553;BME280;34335;51.566;6.994;2023-01-24T00:19:33;103176.91;;;1.68;100.00
48553;BME280;34335;51.566;6.994;2023-01-24T00:21:59;103172.56;;;1.67;100.00
48553;BME280;34335;51.566;6.994;2023-01-24T00:24:24;103169.44;;;1.71;100.00
48553;BME280;34335;51.566;6.994;2023-01-24T00:26:51;103165.50;;;1.64;100.00
48553;BME280;34335;51.566;6.994;2023-01-24T00:29:16;103169.66;;;1.62;100.00
48553;BME280;34335;51.566;6.994;2023-01-24T00:31:41;103167.28;;;1.65;100.00
48553;BME280;34335;51.566;6.994;2023-01-24T00:34:07;103165.41;;;1.63;100.00
48553;BME280;34335;51.566;6.994;2023-01-24T00:36:32;103173.66;;;1.59;100.00
48553;BME280;34335;51.566;6.994;2023-01-24T00:38:57;103164.94;;;1.57;100.00
48553;BME280;34335;51.566;6.994;2023-01-24T00:41:22;103165.97;;;1.59;100.00
48553;BME280;34335;51.566;6.994;2023-01-24T00:43:48;103161.03;;;1.62;100.00
48553;BME280;34335;51.566;6.994;2023-01-24T00:46:13;103155.13;;;1.63;100.00
48553;BME280;34335;51.566;6.994;2023-01-24T00:48:38;103160.69;;;1.57;100.00
48553;BME280;34335;51.566;6.994;2023-01-24T00:51:04;103149.56;;;1.57;100.00
48553;BME280;34335;51.566;6.994;2023-01-24T00:53:29;103143.50;;;1.56;100.00
48553;BME280;34335;51.566;6.994;2023-01-24T00:55:55;103144.41;;;1.57;100.00
48553;BME280;34335;51.566;6.994;2023-01-24T00:58:21;103144.41;;;1.57;100.00
48553;BME280;34335;51.566;6.994;2023-01-24T01:00:47;103149.56;;;1.57;100.00
48553;BME280;34335;51.566;6.994;2023-01-24T01:03:14;103152.91;;;1.55;100.00
48553;BME280;34335;51.566;6.994;2023-01-24T01:05:41;103154.53;;;1.55;100.00
48553;BME280;34335;51.566;6.994;2023-01-24T01:08:06;103159.69;;;1.55;100.00
48553;BME280;34335;51.566;6.994;2023-01-24T01:10:31;103164.81;;;1.55;100.00
48553;BME280;34335;51.566;6.994;2023-01-24T01:12:57;103162.25;;;1.55;100.00
48553;BME280;34335;51.566;6.994;2023-01-24T01:15:22;103171.53;;;1.53;100.00
48553;BME280;34335;51.566;6.994;2023-01-24T01:17:47;103175.19;;;1.57;100.00
48553;BME280;34335;51.566;6.994;2023-01-24T01:20:13;103177.28;;;1.50;100.00
48553;BME280;34335;51.566;6.994;2023-01-24T01:22:38;103183.19;;;1.49;100.00
48553;BME280;34335;51.566;6.994;2023-01-24T01:25:04;103175.50;;;1.49;100.00
48553;BME280;34335;51.566;6.994;2023-01-24T01:27:29;103180.63;;;1.49;100.00
48553;BME280;34335;51.566;6.994;2023-01-24T01:29:54;103167.44;;;1.45;100.00
48553;BME280;34335;51.566;6.994;2023-01-24T01:32:20;103175.28;;;1.46;100.00
48553;BME280;34335;51.566;6.994;2023-01-24T01:34:45;103172.47;;;1.43;100.00
48553;BME280;34335;51.566;6.994;2023-01-24T01:37:10;103170.81;;;1.44;100.00
48553;BME280;34335;51.566;6.994;2023-01-24T01:39:36;103171.03;;;1.47;100.00
48553;BME280;34335;51.566;6.994;2023-01-24T01:42:01;103174.25;;;1.44;100.00
48553;BME280;34335;51.566;6.994;2023-01-24T01:44:31;103181.84;;;1.43;100.00
48553;BME280;34335;51.566;6.994;2023-01-24T01:50:03;103170.56;;;1.40;100.00
48553;BME280;34335;51.566;6.994;2023-01-24T01:52:34;103171.34;;;1.39;100.00
48553;BME280;34335;51.566;6.994;2023-01-24T01:55:06;103174.00;;;1.41;100.00
48553;BME280;34335;51.566;6.994;2023-01-24T01:57:33;103175.69;;;1.40;100.00
48553;BME280;34335;51.566;6.994;2023-01-24T02:00:14;103170.94;;;1.45;100.00
48553;BME280;34335;51.566;6.994;2023-01-24T02:02:43;103173.03;;;1.39;100.00
48553;BME280;34335;51.566;6.994;2023-01-24T02:05:11;103170.69;;;1.42;100.00
48553;BME280;34335;51.566;6.994;2023-01-24T02:07:55;103167.75;;;1.37;100.00
48553;BME280;34335;51.566;6.994;2023-01-24T02:10:23;103163.75;;;1.41;100.00
48553;BME280;34335;51.566;6.994;2023-01-24T02:12:53;103163.75;;;1.41;100.00
48553;BME280;34335;51.566;6.994;2023-01-24T02:15:21;103163.56;;;1.38;100.00
48553;BME280;34335;51.566;6.994;2023-01-24T02:18:07;103164.44;;;1.38;100.00
48553;BME280;34335;51.566;6.994;2023-01-24T02:20:38;103165.88;;;1.35;100.00
48553;BME280;34335;51.566;6.994;2023-01-24T02:28:07;103157.16;;;1.33;100.00
48553;BME280;34335;51.566;6.994;2023-01-24T02:30:35;103156.63;;;1.37;100.00
48553;BME280;34335;51.566;6.994;2023-01-24T02:33:13;103161.75;;;1.37;100.00
48553;BME280;34335;51.566;6.994;2023-01-24T02:35:39;103145.34;;;1.35;100.00
48553;BME280;34335;51.566;6.994;2023-01-24T02:38:18;103156.63;;;1.37;100.00
48553;BME280;34335;51.566;6.994;2023-01-24T02:40:45;103149.72;;;1.36;100.00
48553;BME280;34335;51.566;6.994;2023-01-24T02:43:13;103151.59;;;1.38;100.00
48553;BME280;34335;51.566;6.994;2023-01-24T02:45:39;103147.91;;;1.35;100.00
48553;BME280;34335;51.566;6.994;2023-01-24T02:48:05;103154.38;;;1.30;100.00
48553;BME280;34335;51.566;6.994;2023-01-24T02:50:31;103147.81;;;1.33;100.00
48553;BME280;34335;51.566;6.994;2023-01-24T02:53:17;103147.03;;;1.34;100.00
48553;BME280;34335;51.566;6.994;2023-01-24T02:55:55;103144.59;;;1.36;100.00
48553;BME280;34335;51.566;6.994;2023-01-24T02:58:39;103155.84;;;1.38;100.00
48553;BME280;34335;51.566;6.994;2023-01-24T03:01:04;103142.13;;;1.37;100.00
48553;BME280;34335;51.566;6.994;2023-01-24T03:03:29;103146.25;;;1.35;100.00
48553;BME280;34335;51.566;6.994;2023-01-24T03:05:56;103148.03;;;1.36;100.00
48553;BME280;34335;51.566;6.994;2023-01-24T03:08:27;103140.75;;;1.31;100.00
48553;BME280;34335;51.566;6.994;2023-01-24T03:10:54;103147.03;;;1.34;100.00
48553;BME280;34335;51.566;6.994;2023-01-24T03:13:20;103137.41;;;1.32;100.00
48553;BME280;34335;51.566;6.994;2023-01-24T03:16:04;103134.09;;;1.33;100.00
48553;BME280;34335;51.566;6.994;2023-01-24T03:18:48;103131.53;;;1.33;100.00
48553;BME280;34335;51.566;6.994;2023-01-24T03:21:31;103130.63;;;1.32;100.00
48553;BME280;34335;51.566;6.994;2023-01-24T03:24:16;103129.09;;;1.34;100.00
48553;BME280;34335;51.566;6.994;2023-01-24T03:27:00;103134.84;;;1.32;100.00
48553;BME280;34335;51.566;6.994;2023-01-24T03:29:44;103132.72;;;1.26;100.00
48553;BME280;34335;51.566;6.994;2023-01-24T03:32:28;103135.41;;;1.28;100.00
48553;BME280;34335;51.566;6.994;2023-01-24T03:35:12;103138.09;;;1.29;100.00
48553;BME280;34335;51.566;6.994;2023-01-24T03:37:37;103130.28;;;1.28;100.00
48553;BME280;34335;51.566;6.994;2023-01-24T03:40:21;103136.19;;;1.27;100.00
48553;BME280;34335;51.566;6.994;2023-01-24T03:42:46;103136.31;;;1.28;100.00
48553;BME280;34335;51.566;6.994;2023-01-24T03:45:24;103151.00;;;1.31;100.00
48553;BME280;34335;51.566;6.994;2023-01-24T03:47:51;103142.44;;;1.30;100.00
48553;BME280;34335;51.566;6.994;2023-01-24T03:50:28;103146.34;;;1.25;100.00
48553;BME280;34335;51.566;6.994;2023-01-24T03:53:13;103154.59;;;1.33;100.00
48553;BME280;34335;51.566;6.994;2023-01-24T03:55:39;103142.53;;;1.32;100.00
48553;BME280;34335;51.566;6.994;2023-01-24T03:58:05;103149.25;;;1.30;100.00
48553;BME280;34335;51.566;6.994;2023-01-24T04:00:31;103144.13;;;1.30;100.00
48553;BME280;34335;51.566;6.994;2023-01-24T04:02:57;103137.56;;;1.33;100.00
48553;BME280;34335;51.566;6.994;2023-01-24T04:05:22;103138.75;;;1.27;100.00
48553;BME280;34335;51.566;6.994;2023-01-24T04:07:48;103139.28;;;1.22;100.00
48553;BME280;34335;51.566;6.994;2023-01-24T04:10:14;103136.72;;;1.22;100.00
48553;BME280;34335;51.566;6.994;2023-01-24T04:12:40;103134.16;;;1.22;100.00
48553;BME280;34335;51.566;6.994;2023-01-24T04:15:06;103131.47;;;1.21;100.00
48553;BME280;34335;51.566;6.994;2023-01-24T04:17:32;103129.81;;;1.21;100.00
48553;BME280;34335;51.566;6.994;2023-01-24T04:19:57;103135.84;;;1.22;100.00
48553;BME280;34335;51.566;6.994;2023-01-24T04:22:22;103135.19;;;1.24;100.00
48553;BME280;34335;51.566;6.994;2023-01-24T04:24:48;103127.25;;;1.21;100.00
48553;BME280;34335;51.566;6.994;2023-01-24T04:27:13;103125.44;;;1.20;100.00
48553;BME280;34335;51.566;6.994;2023-01-24T04:29:39;103141.63;;;1.19;100.00
48553;BME280;34335;51.566;6.994;2023-01-24T04:32:04;103134.06;;;1.21;100.00
48553;BME280;34335;51.566;6.994;2023-01-24T04:34:30;103134.72;;;1.18;100.00
48553;BME280;34335;51.566;6.994;2023-01-24T04:36:55;103139.59;;;1.15;100.00
48553;BME280;34335;51.566;6.994;2023-01-24T04:39:20;103140.38;;;1.14;100.00
48553;BME280;34335;51.566;6.994;2023-01-24T04:41:46;103135.91;;;1.12;100.00
48553;BME280;34335;51.566;6.994;2023-01-24T04:44:11;103137.81;;;1.14;100.00
48553;BME280;34335;51.566;6.994;2023-01-24T04:46:36;103129.75;;;1.09;100.00
48553;BME280;34335;51.566;6.994;2023-01-24T04:49:02;103133.25;;;1.10;100.00
48553;BME280;34335;51.566;6.994;2023-01-24T04:51:27;103128.88;;;1.09;100.00
48553;BME280;34335;51.566;6.994;2023-01-24T04:53:52;103131.31;;;1.07;100.00
48553;BME280;34335;51.566;6.994;2023-01-24T04:56:18;103137.56;;;1.11;100.00
48553;BME280;34335;51.566;6.994;2023-01-24T04:58:43;103133.44;;;1.13;100.00
48553;BME280;34335;51.566;6.994;2023-01-24T05:01:08;103139.34;;;1.12;100.00
48553;BME280;34335;51.566;6.994;2023-01-24T05:03:34;103142.94;;;1.14;100.00
48553;BME280;34335;51.566;6.994;2023-01-24T05:05:59;103141.13;;;1.13;100.00
48553;BME280;34335;51.566;6.994;2023-01-24T05:08:24;103146.06;;;1.10;100.00
48553;BME280;34335;51.566;6.994;2023-01-24T05:10:51;103145.50;;;1.14;100.00
48553;BME280;34335;51.566;6.994;2023-01-24T05:13:16;103144.25;;;1.09;100.00
48553;BME280;34335;51.566;6.994;2023-01-24T05:15:49;103149.38;;;1.09;100.00
48553;BME280;34335;51.566;6.994;2023-01-24T05:18:14;103149.50;;;1.11;100.00
48553;BME280;34335;51.566;6.994;2023-01-24T05:20:40;103149.50;;;1.11;100.00
48553;BME280;34335;51.566;6.994;2023-01-24T05:23:05;103152.84;;;1.09;100.00
48553;BME280;34335;51.566;6.994;2023-01-24T05:25:30;103152.72;;;1.08;100.00
48553;BME280;34335;51.566;6.994;2023-01-24T05:27:55;103142.22;;;1.05;100.00
48553;BME280;34335;51.566;6.994;2023-01-24T05:30:21;103146.81;;;1.09;100.00
48553;BME280;34335;51.566;6.994;2023-01-24T05:32:46;103145.03;;;1.08;100.00
48553;BME280;34335;51.566;6.994;2023-01-24T05:35:11;103153.25;;;1.04;100.00
48553;BME280;34335;51.566;6.994;2023-01-24T05:37:37;103150.69;;;1.04;100.00
48553;BME280;34335;51.566;6.994;2023-01-24T05:40:04;103151.81;;;1.07;100.00
48553;BME280;34335;51.566;6.994;2023-01-24T05:42:30;103161.97;;;1.06;100.00
48553;BME280;34335;51.566;6.994;2023-01-24T05:44:55;103162.97;;;1.08;100.00
48553;BME280;34335;51.566;6.994;2023-01-24T05:47:21;103160.94;;;1.04;100.00
48553;BME280;34335;51.566;6.994;2023-01-24T05:49:47;103163.50;;;1.04;100.00
48553;BME280;34335;51.566;6.994;2023-01-24T05:52:13;103169.53;;;1.04;100.00
48553;BME280;34335;51.566;6.994;2023-01-24T05:54:43;103173.09;;;1.06;100.00
48553;BME280;34335;51.566;6.994;2023-01-24T05:57:09;103172.31;;;1.07;100.00
48553;BME280;34335;51.566;6.994;2023-01-24T05:59:34;103174.00;;;1.07;100.00
48553;BME280;34335;51.566;6.994;2023-01-24T06:01:59;103174.88;;;1.07;100.00
48553;BME280;34335;51.566;6.994;2023-01-24T06:04:24;103177.69;;;1.11;100.00
48553;BME280;34335;51.566;6.994;2023-01-24T06:06:50;103180.91;;;1.08;100.00
48553;BME280;34335;51.566;6.994;2023-01-24T06:09:15;103182.94;;;1.12;100.00
48553;BME280;34335;51.566;6.994;2023-01-24T06:11:40;103180.19;;;1.21;100.00
48553;BME280;34335;51.566;6.994;2023-01-24T06:14:05;103180.47;;;1.36;100.00
48553;BME280;34335;51.566;6.994;2023-01-24T06:16:31;103186.97;;;1.43;100.00
48553;BME280;34335;51.566;6.994;2023-01-24T06:18:56;103190.34;;;1.53;100.00
48553;BME280;34335;51.566;6.994;2023-01-24T06:21:46;103190.28;;;1.64;100.00
48553;BME280;34335;51.566;6.994;2023-01-24T06:26:40;103196.56;;;1.45;100.00
48553;BME280;34335;51.566;6.994;2023-01-24T06:29:10;103202.47;;;1.44;100.00
48553;BME280;34335;51.566;6.994;2023-01-24T06:39:50;103204.28;;;1.23;100.00
48553;BME280;34335;51.566;6.994;2023-01-24T06:42:21;103208.16;;;1.18;100.00
48553;BME280;34335;51.566;6.994;2023-01-24T06:44:47;103209.81;;;1.17;100.00
48553;BME280;34335;51.566;6.994;2023-01-24T06:47:13;103204.44;;;1.14;100.00
48553;BME280;34335;51.566;6.994;2023-01-24T06:49:38;103209.56;;;1.14;100.00
48553;BME280;34335;51.566;6.994;2023-01-24T06:52:04;103213.16;;;1.16;100.00
48553;BME280;34335;51.566;6.994;2023-01-24T06:54:29;103215.38;;;1.12;100.00
48553;BME280;34335;51.566;6.994;2023-01-24T06:56:55;103216.50;;;1.15;100.00
48553;BME280;34335;51.566;6.994;2023-01-24T06:59:20;103223.94;;;1.12;100.00
48553;BME280;34335;51.566;6.994;2023-01-24T07:01:51;103213.69;;;1.12;100.00
48553;BME280;34335;51.566;6.994;2023-01-24T07:04:16;103222.16;;;1.11;100.00
48553;BME280;34335;51.566;6.994;2023-01-24T07:06:42;103223.81;;;1.11;100.00
48553;BME280;34335;51.566;6.994;2023-01-24T07:09:07;103215.00;;;1.07;100.00
48553;BME280;34335;51.566;6.994;2023-01-24T07:11:33;103221.94;;;1.08;100.00
48553;BME280;34335;51.566;6.994;2023-01-24T07:13:58;103224.50;;;1.08;100.00
48553;BME280;34335;51.566;6.994;2023-01-24T07:16:23;103220.91;;;1.06;100.00
48553;BME280;34335;51.566;6.994;2023-01-24T07:18:49;103232.69;;;1.04;100.00
48553;BME280;34335;51.566;6.994;2023-01-24T07:21:14;103235.41;;;1.05;100.00
48553;BME280;34335;51.566;6.994;2023-01-24T07:23:44;103242.19;;;1.05;100.00
48553;BME280;34335;51.566;6.994;2023-01-24T07:26:09;103236.03;;;1.03;100.00
48553;BME280;34335;51.566;6.994;2023-01-24T07:28:36;103239.88;;;1.08;100.00
48553;BME280;34335;51.566;6.994;2023-01-24T07:31:01;103231.16;;;1.06;100.00
48553;BME280;34335;51.566;6.994;2023-01-24T07:33:28;103233.81;;;1.07;100.00
48553;BME280;34335;51.566;6.994;2023-01-24T07:35:53;103238.75;;;1.04;100.00
48553;BME280;34335;51.566;6.994;2023-01-24T07:38:18;103241.78;;;1.11;100.00
48553;BME280;34335;51.566;6.994;2023-01-24T07:40:44;103234.75;;;1.08;100.00
48553;BME280;34335;51.566;6.994;2023-01-24T07:43:09;103246.78;;;1.09;100.00
48553;BME280;34335;51.566;6.994;2023-01-24T07:45:34;103244.75;;;1.05;100.00
48553;BME280;34335;51.566;6.994;2023-01-24T07:48:01;103245.00;;;1.08;100.00
48553;BME280;34335;51.566;6.994;2023-01-24T07:50:27;103252.31;;;1.03;100.00
48553;BME280;34335;51.566;6.994;2023-01-24T07:52:53;103259.66;;;0.99;100.00
48553;BME280;34335;51.566;6.994;2023-01-24T07:55:19;103249.09;;;1.06;100.00
48553;BME280;34335;51.566;6.994;2023-01-24T07:57:45;103255.59;;;1.13;100.00
48553;BME280;34335;51.566;6.994;2023-01-24T08:00:11;103251.25;;;1.12;100.00
48553;BME280;34335;51.566;6.994;2023-01-24T08:02:36;103257.03;;;1.09;100.00
48553;BME280;34335;51.566;6.994;2023-01-24T08:05:02;103262.53;;;1.14;100.00
48553;BME280;34335;51.566;6.994;2023-01-24T08:07:27;103262.38;;;1.12;100.00
48553;BME280;34335;51.566;6.994;2023-01-24T08:09:52;103263.28;;;1.13;100.00
48553;BME280;34335;51.566;6.994;2023-01-24T08:12:17;103270.84;;;1.11;100.00
48553;BME280;34335;51.566;6.994;2023-01-24T08:14:43;103269.59;;;1.06;100.00
48553;BME280;34335;51.566;6.994;2023-01-24T08:17:09;103265.25;;;1.05;100.00
48553;BME280;34335;51.566;6.994;2023-01-24T08:19:34;103264.13;;;1.01;100.00
48553;BME280;34335;51.566;6.994;2023-01-24T08:22:01;103280.38;;;1.02;100.00
48553;BME280;34335;51.566;6.994;2023-01-24T08:24:26;103277.03;;;1.03;100.00
48553;BME280;34335;51.566;6.994;2023-01-24T08:26:51;103281.16;;;1.01;100.00
48553;BME280;34335;51.566;6.994;2023-01-24T08:29:17;103283.19;;;1.05;100.00
48553;BME280;34335;51.566;6.994;2023-01-24T08:31:42;103283.97;;;1.04;100.00
48553;BME280;34335;51.566;6.994;2023-01-24T08:34:09;103285.84;;;1.06;100.00
48553;BME280;34335;51.566;6.994;2023-01-24T08:36:34;103275.50;;;1.05;100.00
48553;BME280;34335;51.566;6.994;2023-01-24T08:38:59;103284.72;;;1.03;100.00
48553;BME280;34335;51.566;6.994;2023-01-24T08:41:24;103279.59;;;1.03;100.00
48553;BME280;34335;51.566;6.994;2023-01-24T08:43:53;103281.66;;;1.07;100.00
48553;BME280;34335;51.566;6.994;2023-01-24T08:46:18;103287.53;;;1.06;100.00
48553;BME280;34335;51.566;6.994;2023-01-24T08:48:43;103289.59;;;1.10;100.00
48553;BME280;34335;51.566;6.994;2023-01-24T08:51:08;103290.34;;;1.09;100.00
48553;BME280;34335;51.566;6.994;2023-01-24T08:53:34;103302.41;;;1.10;100.00
48553;BME280;34335;51.566;6.994;2023-01-24T08:55:59;103297.28;;;1.10;100.00
48553;BME280;34335;51.566;6.994;2023-01-24T08:58:24;103301.59;;;1.11;100.00
48553;BME280;34335;51.566;6.994;2023-01-24T09:00:49;103301.50;;;1.09;100.00
48553;BME280;34335;51.566;6.994;2023-01-24T09:03:17;103298.81;;;1.08;100.00
48553;BME280;34335;51.566;6.994;2023-01-24T09:05:43;103306.72;;;1.11;100.00
48553;BME280;34335;51.566;6.994;2023-01-24T09:08:08;103295.84;;;1.14;100.00
48553;BME280;34335;51.566;6.994;2023-01-24T09:10:34;103301.09;;;1.15;100.00
48553;BME280;34335;51.566;6.994;2023-01-24T09:13:00;103303.00;;;1.18;100.00
48553;BME280;34335;51.566;6.994;2023-01-24T09:15:26;103302.88;;;1.16;100.00
48553;BME280;34335;51.566;6.994;2023-01-24T09:17:51;103309.25;;;1.21;100.00
48553;BME280;34335;51.566;6.994;2023-01-24T09:20:16;103305.81;;;1.21;100.00
48553;BME280;34335;51.566;6.994;2023-01-24T09:22:43;103315.69;;;1.16;100.00
48553;BME280;34335;51.566;6.994;2023-01-24T09:25:08;103313.66;;;1.12;100.00
48553;BME280;34335;51.566;6.994;2023-01-24T09:27:37;103313.59;;;1.22;100.00
48553;BME280;34335;51.566;6.994;2023-01-24T09:30:04;103315.03;;;1.19;100.00
48553;BME280;34335;51.566;6.994;2023-01-24T09:32:30;103315.41;;;1.23;100.00
48553;BME280;34335;51.566;6.994;2023-01-24T09:34:55;103318.22;;;1.27;100.00
48553;BME280;34335;51.566;6.994;2023-01-24T09:37:21;103322.94;;;1.32;100.00
48553;BME280;34335;51.566;6.994;2023-01-24T09:39:47;103322.28;;;1.35;100.00
48553;BME280;34335;51.566;6.994;2023-01-24T09:42:18;103318.47;;;1.30;100.00
48553;BME280;34335;51.566;6.994;2023-01-24T09:44:49;103314.34;;;1.32;100.00
48553;BME280;34335;51.566;6.994;2023-01-24T09:47:25;103318.47;;;1.30;100.00
48553;BME280;34335;51.566;6.994;2023-01-24T09:50:01;103318.47;;;1.30;100.00
48553;BME280;34335;51.566;6.994;2023-01-24T09:52:33;103312.28;;;1.38;100.00
48553;BME280;34335;51.566;6.994;2023-01-24T09:55:05;103316.09;;;1.43;100.00
48553;BME280;34335;51.566;6.994;2023-01-24T09:57:48;103317.88;;;1.44;100.00
48553;BME280;34335;51.566;6.994;2023-01-24T10:00:19;103320.34;;;1.43;100.00
48553;BME280;34335;51.566;6.994;2023-01-24T10:02:46;103321.88;;;1.40;100.00
48553;BME280;34335;51.566;6.994;2023-01-24T10:05:15;103325.31;;;1.41;100.00
48553;BME280;34335;51.566;6.994;2023-01-24T10:07:56;103322.34;;;1.47;100.00
48553;BME280;34335;51.566;6.994;2023-01-24T10:10:44;103325.06;;;1.48;100.00
48553;BME280;34335;51.566;6.994;2023-01-24T10:13:16;103324.13;;;1.48;100.00
48553;BME280;34335;51.566;6.994;2023-01-24T10:15:56;103327.06;;;1.52;100.00
48553;BME280;34335;51.566;6.994;2023-01-24T10:21:41;103322.50;;;1.48;100.00
48553;BME280;34335;51.566;6.994;2023-01-24T10:24:24;103320.81;;;1.49;100.00
48553;BME280;34335;51.566;6.994;2023-01-24T10:26:53;103321.94;;;1.52;100.00
48553;BME280;34335;51.566;6.994;2023-01-24T10:29:31;103322.19;;;1.55;100.00
48553;BME280;34335;51.566;6.994;2023-01-24T10:32:29;103321.53;;;1.58;100.00
48553;BME280;34335;51.566;6.994;2023-01-24T10:35:11;103316.50;;;1.60;100.00
48553;BME280;34335;51.566;6.994;2023-01-24T10:37:39;103322.19;;;1.55;100.00
48553;BME280;34335;51.566;6.994;2023-01-24T10:40:16;103317.06;;;1.55;100.00
48553;BME280;34335;51.566;6.994;2023-01-24T10:42:42;103332.91;;;1.62;100.00
48553;BME280;34335;51.566;6.994;2023-01-24T10:48:01;103321.09;;;1.64;100.00
48553;BME280;34335;51.566;6.994;2023-01-24T10:50:35;103319.56;;;1.66;100.00
48553;BME280;34335;51.566;6.994;2023-01-24T10:53:23;103319.41;;;1.64;100.00
48553;BME280;34335;51.566;6.994;2023-01-24T10:56:02;103315.66;;;1.71;100.00
48553;BME280;34335;51.566;6.994;2023-01-24T11:00:58;103311.56;;;1.73;100.00
48553;BME280;34335;51.566;6.994;2023-01-24T11:03:30;103311.56;;;1.73;100.00
48553;BME280;34335;51.566;6.994;2023-01-24T11:05:58;103304.63;;;1.72;100.00
48553;BME280;34335;51.566;6.994;2023-01-24T11:08:25;103306.53;;;1.75;100.00
48553;BME280;34335;51.566;6.994;2023-01-24T11:10:53;103309.25;;;1.76;100.00
48553;BME280;34335;51.566;6.994;2023-01-24T11:18:33;103301.75;;;1.79;100.00
48553;BME280;34335;51.566;6.994;2023-01-24T11:23:33;103289.06;;;1.81;100.00
48553;BME280;34335;51.566;6.994;2023-01-24T11:26:01;103291.63;;;1.81;100.00
48553;BME280;34335;51.566;6.994;2023-01-24T11:28:37;103294.31;;;1.82;100.00
48553;BME280;34335;51.566;6.994;2023-01-24T11:31:15;103293.53;;;1.83;100.00
48553;BME280;34335;51.566;6.994;2023-01-24T11:33:55;103292.75;;;1.84;100.00
48553;BME280;34335;51.566;6.994;2023-01-24T11:36:36;103300.03;;;1.90;100.00
48553;BME280;34335;51.566;6.994;2023-01-24T11:39:13;103287.97;;;1.89;100.00
48553;BME280;34335;51.566;6.994;2023-01-24T11:41:54;103293.09;;;1.89;100.00
48553;BME280;34335;51.566;6.994;2023-01-24T11:44:40;103288.06;;;1.91;100.00
48553;BME280;34335;51.566;6.994;2023-01-24T11:47:18;103293.34;;;1.92;100.00
48553;BME280;34335;51.566;6.994;2023-01-24T11:53:19;103282.19;;;2.03;100.00
48553;BME280;34335;51.566;6.994;2023-01-24T11:56:03;103273.03;;;2.07;100.00
48553;BME280;34335;51.566;6.994;2023-01-24T11:58:58;103266.16;;;2.06;100.00
48553;BME280;34335;51.566;6.994;2023-01-24T12:04:52;103259.44;;;2.08;100.00
48553;BME280;34335;51.566;6.994;2023-01-24T12:21:14;103242.72;;;2.13;100.00
48553;BME280;34335;51.566;6.994;2023-01-24T12:26:17;103232.00;;;2.19;100.00
48553;BME280;34335;51.566;6.994;2023-01-24T12:28:49;103229.88;;;2.25;100.00
48553;BME280;34335;51.566;6.994;2023-01-24T12:31:25;103222.19;;;2.13;100.00
48553;BME280;34335;51.566;6.994;2023-01-24T12:34:00;103223.97;;;2.38;100.00
48553;BME280;34335;51.566;6.994;2023-01-24T12:36:45;103229.44;;;2.43;100.00
48553;BME280;34335;51.566;6.994;2023-01-24T12:39:19;103216.16;;;2.37;100.00
48553;BME280;34335;51.566;6.994;2023-01-24T12:42:04;103215.25;;;2.36;100.00
48553;BME280;34335;51.566;6.994;2023-01-24T12:44:34;103221.84;;;2.32;100.00
48553;BME280;34335;51.566;6.994;2023-01-24T12:47:40;103212.13;;;2.16;100.00
48553;BME280;34335;51.566;6.994;2023-01-24T12:53:12;103211.56;;;2.21;100.00
48553;BME280;34335;51.566;6.994;2023-01-24T12:55:52;103215.16;;;2.23;100.00
48553;BME280;34335;51.566;6.994;2023-01-24T12:58:26;103205.00;;;2.24;100.00
48553;BME280;34335;51.566;6.994;2023-01-24T13:01:34;103213.81;;;2.28;100.00
48553;BME280;34335;51.566;6.994;2023-01-24T13:04:14;103203.00;;;2.20;100.00
48553;BME280;34335;51.566;6.994;2023-01-24T13:06:52;103197.28;;;2.36;100.00
48553;BME280;34335;51.566;6.994;2023-01-24T13:09:37;103199.63;;;2.45;100.00
48553;BME280;34335;51.566;6.994;2023-01-24T13:12:12;103193.28;;;2.52;100.00
48553;BME280;34335;51.566;6.994;2023-01-24T13:14:49;103193.28;;;2.52;100.00
48553;BME280;34335;51.566;6.994;2023-01-24T13:20:13;103203.09;;;2.57;100.00
48553;BME280;34335;51.566;6.994;2023-01-24T13:26:12;103187.13;;;2.49;100.00
48553;BME280;34335;51.566;6.994;2023-01-24T13:31:51;103188.22;;;2.53;100.00
48553;BME280;34335;51.566;6.994;2023-01-24T13:34:21;103187.56;;;2.44;100.00
48553;BME280;34335;51.566;6.994;2023-01-24T13:36:51;103188.22;;;2.53;100.00
48553;BME280;34335;51.566;6.994;2023-01-24T13:39:38;103196.28;;;2.46;100.00
48553;BME280;34335;51.566;6.994;2023-01-24T13:42:23;103186.78;;;2.57;100.00
48553;BME280;34335;51.566;6.994;2023-01-24T13:44:56;103193.63;;;2.44;100.00
48553;BME280;34335;51.566;6.994;2023-01-24T13:47:23;103191.03;;;2.56;100.00
48553;BME280;34335;51.566;6.994;2023-01-24T13:54:59;103205.56;;;2.32;100.00
48553;BME280;34335;51.566;6.994;2023-01-24T13:57:26;103203.19;;;2.59;100.00
48553;BME280;34335;51.566;6.994;2023-01-24T14:00:16;103202.97;;;2.56;100.00
48553;BME280;34335;51.566;6.994;2023-01-24T14:10:45;103195.06;;;2.53;100.00
48553;BME280;34335;51.566;6.994;2023-01-24T14:18:54;103211.25;;;2.28;100.00
48553;BME280;34335;51.566;6.994;2023-01-24T14:21:48;103207.31;;;2.57;100.00
48553;BME280;34335;51.566;6.994;2023-01-24T14:24:25;103204.31;;;2.51;100.00
48553;BME280;34335;51.566;6.994;2023-01-24T14:26:56;103213.47;;;2.59;100.00
48553;BME280;34335;51.566;6.994;2023-01-24T14:29:34;103218.63;;;2.59;100.00
48553;BME280;34335;51.566;6.994;2023-01-24T14:32:01;103221.63;;;2.41;100.00